Mount Olive, West Virginia
Current Conditions -  °F | °C
As of 8:14 AM on Wednesday 22 Oct 2014 (Local Time) from KCRW Reporting Station
Drizzle Drizzle  
Wind Chill: 42°   Ceiling: 1200
Heat Index: 46°   Visibility: 8mi
Dew Point: 43°   Wind: 8mph
Humidity: 89%   Direction: 310°NW
Pressure: 30.16"   Gusts: NA
Location:  38.23°N, 81.23°W
Report Text: KCRW 221214Z 31007KT 8SM -DZ FEW001 OVC012 08/06 A3016 RMK AO2 VLY FG P0000 T00780061
Loading
Personal Weather Stations






























Interactive Weather Map
Tropical Storm Tracking
New forecast layout! Learn more

10-Day Weather Forecast

Advertisements
Track Severe Weather on mobile